sensor_id;sensor_type;location;lat;lon;timestamp;P1;durP1;ratioP1;P2;durP2;ratioP2
36391;SDS011;22639;42.690;23.356;2023-05-07T00:00:05;8.57;;;6.80;;
36391;SDS011;22639;42.690;23.356;2023-05-07T00:02:33;9.57;;;6.93;;
36391;SDS011;22639;42.690;23.356;2023-05-07T00:04:58;12.23;;;6.80;;
36391;SDS011;22639;42.690;23.356;2023-05-07T00:07:23;12.27;;;7.73;;
36391;SDS011;22639;42.690;23.356;2023-05-07T00:09:49;10.03;;;7.13;;
36391;SDS011;22639;42.690;23.356;2023-05-07T00:12:14;11.17;;;8.23;;
36391;SDS011;22639;42.690;23.356;2023-05-07T00:14:39;11.10;;;8.50;;
36391;SDS011;22639;42.690;23.356;2023-05-07T00:17:04;11.53;;;8.90;;
36391;SDS011;22639;42.690;23.356;2023-05-07T00:19:30;10.13;;;8.27;;
36391;SDS011;22639;42.690;23.356;2023-05-07T00:21:55;12.90;;;9.67;;
36391;SDS011;22639;42.690;23.356;2023-05-07T00:24:21;11.70;;;9.60;;
36391;SDS011;22639;42.690;23.356;2023-05-07T00:26:46;17.73;;;10.23;;
36391;SDS011;22639;42.690;23.356;2023-05-07T00:29:12;9.93;;;7.53;;
36391;SDS011;22639;42.690;23.356;2023-05-07T00:31:37;8.70;;;7.17;;
36391;SDS011;22639;42.690;23.356;2023-05-07T00:34:02;16.73;;;13.60;;
36391;SDS011;22639;42.690;23.356;2023-05-07T00:36:27;19.97;;;12.93;;
36391;SDS011;22639;42.690;23.356;2023-05-07T00:38:53;16.77;;;12.87;;
36391;SDS011;22639;42.690;23.356;2023-05-07T00:41:18;12.80;;;9.73;;
36391;SDS011;22639;42.690;23.356;2023-05-07T00:43:44;22.67;;;16.77;;
36391;SDS011;22639;42.690;23.356;2023-05-07T00:46:09;10.70;;;7.43;;
36391;SDS011;22639;42.690;23.356;2023-05-07T00:48:35;9.37;;;6.67;;
36391;SDS011;22639;42.690;23.356;2023-05-07T00:51:00;8.60;;;6.60;;
36391;SDS011;22639;42.690;23.356;2023-05-07T00:53:25;10.70;;;7.60;;
36391;SDS011;22639;42.690;23.356;2023-05-07T00:55:51;12.60;;;8.00;;
36391;SDS011;22639;42.690;23.356;2023-05-07T00:58:17;11.40;;;6.40;;
36391;SDS011;22639;42.690;23.356;2023-05-07T01:00:42;12.00;;;7.47;;
36391;SDS011;22639;42.690;23.356;2023-05-07T01:03:07;8.57;;;6.90;;
36391;SDS011;22639;42.690;23.356;2023-05-07T01:05:33;9.37;;;7.13;;
36391;SDS011;22639;42.690;23.356;2023-05-07T01:07:58;7.70;;;5.47;;
36391;SDS011;22639;42.690;23.356;2023-05-07T01:10:24;10.77;;;6.10;;
36391;SDS011;22639;42.690;23.356;2023-05-07T01:12:49;11.13;;;6.70;;
36391;SDS011;22639;42.690;23.356;2023-05-07T01:15:15;7.70;;;6.10;;
36391;SDS011;22639;42.690;23.356;2023-05-07T01:17:41;7.70;;;5.77;;
36391;SDS011;22639;42.690;23.356;2023-05-07T01:20:07;5.20;;;4.43;;
36391;SDS011;22639;42.690;23.356;2023-05-07T01:22:33;6.30;;;5.20;;
36391;SDS011;22639;42.690;23.356;2023-05-07T01:24:58;5.40;;;4.90;;
36391;SDS011;22639;42.690;23.356;2023-05-07T01:27:24;6.07;;;4.77;;
36391;SDS011;22639;42.690;23.356;2023-05-07T01:29:50;5.50;;;4.37;;
36391;SDS011;22639;42.690;23.356;2023-05-07T01:32:15;5.87;;;4.87;;
36391;SDS011;22639;42.690;23.356;2023-05-07T01:34:43;8.90;;;5.47;;
36391;SDS011;22639;42.690;23.356;2023-05-07T01:37:10;8.87;;;6.73;;
36391;SDS011;22639;42.690;23.356;2023-05-07T01:39:35;9.37;;;7.33;;
36391;SDS011;22639;42.690;23.356;2023-05-07T01:42:01;7.63;;;6.83;;
36391;SDS011;22639;42.690;23.356;2023-05-07T01:44:26;8.63;;;6.67;;
36391;SDS011;22639;42.690;23.356;2023-05-07T01:46:52;7.43;;;5.40;;
36391;SDS011;22639;42.690;23.356;2023-05-07T01:49:18;8.73;;;6.70;;
36391;SDS011;22639;42.690;23.356;2023-05-07T01:51:44;5.17;;;4.30;;
36391;SDS011;22639;42.690;23.356;2023-05-07T01:54:09;4.97;;;4.37;;
36391;SDS011;22639;42.690;23.356;2023-05-07T01:56:34;7.33;;;5.20;;
36391;SDS011;22639;42.690;23.356;2023-05-07T01:59:00;5.47;;;4.97;;
36391;SDS011;22639;42.690;23.356;2023-05-07T02:01:25;9.57;;;7.97;;
36391;SDS011;22639;42.690;23.356;2023-05-07T02:03:50;12.63;;;9.73;;
36391;SDS011;22639;42.690;23.356;2023-05-07T02:06:15;9.27;;;7.93;;
36391;SDS011;22639;42.690;23.356;2023-05-07T02:08:41;10.43;;;8.63;;
36391;SDS011;22639;42.690;23.356;2023-05-07T02:11:06;9.87;;;6.07;;
36391;SDS011;22639;42.690;23.356;2023-05-07T02:13:32;8.67;;;6.83;;
36391;SDS011;22639;42.690;23.356;2023-05-07T02:15:57;6.60;;;5.97;;
36391;SDS011;22639;42.690;23.356;2023-05-07T02:18:23;8.00;;;5.13;;
36391;SDS011;22639;42.690;23.356;2023-05-07T02:20:48;6.20;;;5.50;;
36391;SDS011;22639;42.690;23.356;2023-05-07T02:23:13;7.20;;;5.57;;
36391;SDS011;22639;42.690;23.356;2023-05-07T02:25:38;7.97;;;5.60;;
36391;SDS011;22639;42.690;23.356;2023-05-07T02:28:03;11.97;;;7.40;;
36391;SDS011;22639;42.690;23.356;2023-05-07T02:30:29;6.67;;;5.50;;
36391;SDS011;22639;42.690;23.356;2023-05-07T02:32:54;6.70;;;5.97;;
36391;SDS011;22639;42.690;23.356;2023-05-07T02:35:19;8.20;;;6.50;;
36391;SDS011;22639;42.690;23.356;2023-05-07T02:37:45;11.53;;;7.13;;
36391;SDS011;22639;42.690;23.356;2023-05-07T02:40:10;7.70;;;6.87;;
36391;SDS011;22639;42.690;23.356;2023-05-07T02:42:36;14.20;;;8.90;;
36391;SDS011;22639;42.690;23.356;2023-05-07T02:45:01;8.87;;;6.97;;
36391;SDS011;22639;42.690;23.356;2023-05-07T02:47:26;14.20;;;8.37;;
36391;SDS011;22639;42.690;23.356;2023-05-07T02:49:53;9.67;;;7.33;;
36391;SDS011;22639;42.690;23.356;2023-05-07T02:52:18;12.70;;;8.13;;
36391;SDS011;22639;42.690;23.356;2023-05-07T02:54:43;8.20;;;6.33;;
36391;SDS011;22639;42.690;23.356;2023-05-07T02:57:08;11.77;;;9.13;;
36391;SDS011;22639;42.690;23.356;2023-05-07T02:59:34;11.40;;;8.77;;
36391;SDS011;22639;42.690;23.356;2023-05-07T03:01:59;13.40;;;7.50;;
36391;SDS011;22639;42.690;23.356;2023-05-07T03:04:24;10.50;;;8.17;;
36391;SDS011;22639;42.690;23.356;2023-05-07T03:06:50;10.23;;;7.87;;
36391;SDS011;22639;42.690;23.356;2023-05-07T03:09:15;12.57;;;7.83;;
36391;SDS011;22639;42.690;23.356;2023-05-07T03:11:41;13.73;;;8.13;;
36391;SDS011;22639;42.690;23.356;2023-05-07T03:14:06;11.27;;;8.73;;
36391;SDS011;22639;42.690;23.356;2023-05-07T03:16:31;12.80;;;9.03;;
36391;SDS011;22639;42.690;23.356;2023-05-07T03:18:57;11.50;;;8.30;;
36391;SDS011;22639;42.690;23.356;2023-05-07T03:21:22;10.53;;;8.37;;
36391;SDS011;22639;42.690;23.356;2023-05-07T03:23:47;12.97;;;8.00;;
36391;SDS011;22639;42.690;23.356;2023-05-07T03:26:12;8.73;;;7.60;;
36391;SDS011;22639;42.690;23.356;2023-05-07T03:28:37;10.80;;;8.77;;
36391;SDS011;22639;42.690;23.356;2023-05-07T03:31:03;11.87;;;9.07;;
36391;SDS011;22639;42.690;23.356;2023-05-07T03:33:28;12.10;;;8.43;;
36391;SDS011;22639;42.690;23.356;2023-05-07T03:35:53;11.40;;;8.67;;
36391;SDS011;22639;42.690;23.356;2023-05-07T03:38:19;13.03;;;8.67;;
36391;SDS011;22639;42.690;23.356;2023-05-07T03:40:44;14.10;;;9.83;;
36391;SDS011;22639;42.690;23.356;2023-05-07T03:43:09;12.70;;;9.30;;
36391;SDS011;22639;42.690;23.356;2023-05-07T03:45:35;13.37;;;9.70;;
36391;SDS011;22639;42.690;23.356;2023-05-07T03:48:00;13.47;;;10.47;;
36391;SDS011;22639;42.690;23.356;2023-05-07T03:50:25;13.10;;;10.33;;
36391;SDS011;22639;42.690;23.356;2023-05-07T03:52:51;12.80;;;9.53;;
36391;SDS011;22639;42.690;23.356;2023-05-07T03:55:16;13.50;;;9.67;;
36391;SDS011;22639;42.690;23.356;2023-05-07T03:57:41;11.27;;;9.20;;
36391;SDS011;22639;42.690;23.356;2023-05-07T04:00:06;9.93;;;8.55;;
36391;SDS011;22639;42.690;23.356;2023-05-07T04:02:32;9.55;;;7.82;;
36391;SDS011;22639;42.690;23.356;2023-05-07T04:04:58;10.38;;;8.85;;
36391;SDS011;22639;42.690;23.356;2023-05-07T04:07:23;9.77;;;8.43;;
36391;SDS011;22639;42.690;23.356;2023-05-07T04:09:48;9.48;;;8.40;;
36391;SDS011;22639;42.690;23.356;2023-05-07T04:12:13;12.07;;;8.10;;
36391;SDS011;22639;42.690;23.356;2023-05-07T04:14:38;9.98;;;8.23;;
36391;SDS011;22639;42.690;23.356;2023-05-07T04:17:04;8.75;;;7.85;;
36391;SDS011;22639;42.690;23.356;2023-05-07T04:19:32;8.48;;;7.43;;
36391;SDS011;22639;42.690;23.356;2023-05-07T04:21:57;11.05;;;9.20;;
36391;SDS011;22639;42.690;23.356;2023-05-07T04:24:23;9.85;;;8.35;;
36391;SDS011;22639;42.690;23.356;2023-05-07T04:26:48;11.38;;;9.45;;
36391;SDS011;22639;42.690;23.356;2023-05-07T04:29:13;16.95;;;11.60;;
36391;SDS011;22639;42.690;23.356;2023-05-07T04:31:38;11.20;;;10.05;;
36391;SDS011;22639;42.690;23.356;2023-05-07T04:34:04;9.82;;;8.00;;
36391;SDS011;22639;42.690;23.356;2023-05-07T04:36:30;10.90;;;8.68;;
36391;SDS011;22639;42.690;23.356;2023-05-07T04:38:58;9.00;;;8.10;;
36391;SDS011;22639;42.690;23.356;2023-05-07T04:41:23;10.18;;;8.45;;
36391;SDS011;22639;42.690;23.356;2023-05-07T04:43:48;9.18;;;8.27;;
36391;SDS011;22639;42.690;23.356;2023-05-07T04:46:13;11.73;;;8.98;;
36391;SDS011;22639;42.690;23.356;2023-05-07T04:48:39;9.05;;;8.13;;
36391;SDS011;22639;42.690;23.356;2023-05-07T04:51:04;9.93;;;8.50;;
36391;SDS011;22639;42.690;23.356;2023-05-07T04:53:29;9.23;;;8.32;;
36391;SDS011;22639;42.690;23.356;2023-05-07T04:55:57;9.70;;;8.60;;
36391;SDS011;22639;42.690;23.356;2023-05-07T04:58:22;8.68;;;7.85;;
36391;SDS011;22639;42.690;23.356;2023-05-07T05:00:48;9.25;;;7.75;;
36391;SDS011;22639;42.690;23.356;2023-05-07T05:03:14;10.60;;;8.07;;
36391;SDS011;22639;42.690;23.356;2023-05-07T05:05:39;9.25;;;8.02;;
36391;SDS011;22639;42.690;23.356;2023-05-07T05:08:04;11.73;;;8.25;;
36391;SDS011;22639;42.690;23.356;2023-05-07T05:10:30;8.70;;;7.78;;
36391;SDS011;22639;42.690;23.356;2023-05-07T05:12:55;9.02;;;8.13;;
36391;SDS011;22639;42.690;23.356;2023-05-07T05:15:20;8.45;;;7.63;;
36391;SDS011;22639;42.690;23.356;2023-05-07T05:17:45;9.85;;;8.48;;
36391;SDS011;22639;42.690;23.356;2023-05-07T05:20:11;8.38;;;7.50;;
36391;SDS011;22639;42.690;23.356;2023-05-07T05:22:36;8.65;;;7.85;;
36391;SDS011;22639;42.690;23.356;2023-05-07T05:25:02;9.27;;;8.38;;
36391;SDS011;22639;42.690;23.356;2023-05-07T05:27:28;8.07;;;7.28;;
36391;SDS011;22639;42.690;23.356;2023-05-07T05:29:53;8.60;;;7.80;;
36391;SDS011;22639;42.690;23.356;2023-05-07T05:32:24;10.32;;;7.97;;
36391;SDS011;22639;42.690;23.356;2023-05-07T05:34:50;8.13;;;6.95;;
36391;SDS011;22639;42.690;23.356;2023-05-07T05:37:16;8.02;;;7.22;;
36391;SDS011;22639;42.690;23.356;2023-05-07T05:39:41;8.98;;;8.05;;
36391;SDS011;22639;42.690;23.356;2023-05-07T05:42:07;7.93;;;7.22;;
36391;SDS011;22639;42.690;23.356;2023-05-07T05:44:38;9.52;;;8.07;;
36391;SDS011;22639;42.690;23.356;2023-05-07T05:47:04;8.90;;;7.07;;
36391;SDS011;22639;42.690;23.356;2023-05-07T05:49:29;8.18;;;7.43;;
36391;SDS011;22639;42.690;23.356;2023-05-07T05:51:55;9.13;;;7.07;;
36391;SDS011;22639;42.690;23.356;2023-05-07T05:54:21;9.02;;;7.53;;
36391;SDS011;22639;42.690;23.356;2023-05-07T05:56:46;8.18;;;7.38;;
36391;SDS011;22639;42.690;23.356;2023-05-07T05:59:11;7.22;;;6.53;;
36391;SDS011;22639;42.690;23.356;2023-05-07T06:01:36;8.98;;;8.07;;
36391;SDS011;22639;42.690;23.356;2023-05-07T06:04:03;7.97;;;7.18;;
36391;SDS011;22639;42.690;23.356;2023-05-07T06:06:29;9.20;;;8.35;;
36391;SDS011;22639;42.690;23.356;2023-05-07T06:08:54;7.30;;;6.70;;
36391;SDS011;22639;42.690;23.356;2023-05-07T06:11:19;11.85;;;10.65;;
36391;SDS011;22639;42.690;23.356;2023-05-07T06:13:46;10.10;;;8.88;;
36391;SDS011;22639;42.690;23.356;2023-05-07T06:16:11;8.68;;;7.47;;
36391;SDS011;22639;42.690;23.356;2023-05-07T06:18:37;9.25;;;8.35;;
36391;SDS011;22639;42.690;23.356;2023-05-07T06:21:02;10.70;;;7.93;;
36391;SDS011;22639;42.690;23.356;2023-05-07T06:23:27;9.40;;;8.55;;
36391;SDS011;22639;42.690;23.356;2023-05-07T06:25:53;8.60;;;7.80;;
36391;SDS011;22639;42.690;23.356;2023-05-07T06:28:18;8.35;;;7.55;;
36391;SDS011;22639;42.690;23.356;2023-05-07T06:30:43;8.48;;;7.50;;
36391;SDS011;22639;42.690;23.356;2023-05-07T06:33:09;8.30;;;7.40;;
36391;SDS011;22639;42.690;23.356;2023-05-07T06:35:34;8.88;;;7.63;;
36391;SDS011;22639;42.690;23.356;2023-05-07T06:38:00;9.25;;;7.72;;
36391;SDS011;22639;42.690;23.356;2023-05-07T06:40:25;9.05;;;8.18;;
36391;SDS011;22639;42.690;23.356;2023-05-07T06:42:50;14.38;;;12.90;;
36391;SDS011;22639;42.690;23.356;2023-05-07T06:45:15;9.48;;;8.30;;
36391;SDS011;22639;42.690;23.356;2023-05-07T06:47:41;7.93;;;7.13;;
36391;SDS011;22639;42.690;23.356;2023-05-07T06:50:06;10.88;;;9.80;;
36391;SDS011;22639;42.690;23.356;2023-05-07T06:52:32;11.45;;;9.70;;
36391;SDS011;22639;42.690;23.356;2023-05-07T06:54:57;9.95;;;8.95;;
36391;SDS011;22639;42.690;23.356;2023-05-07T06:57:23;11.05;;;9.55;;
36391;SDS011;22639;42.690;23.356;2023-05-07T06:59:48;10.90;;;9.80;;
36391;SDS011;22639;42.690;23.356;2023-05-07T07:02:14;10.23;;;9.27;;
36391;SDS011;22639;42.690;23.356;2023-05-07T07:04:39;12.50;;;11.32;;
36391;SDS011;22639;42.690;23.356;2023-05-07T07:07:05;12.68;;;11.25;;
36391;SDS011;22639;42.690;23.356;2023-05-07T07:09:30;15.57;;;12.45;;
36391;SDS011;22639;42.690;23.356;2023-05-07T07:11:56;12.35;;;11.15;;
36391;SDS011;22639;42.690;23.356;2023-05-07T07:14:21;11.88;;;10.68;;
36391;SDS011;22639;42.690;23.356;2023-05-07T07:16:46;9.47;;;8.47;;
36391;SDS011;22639;42.690;23.356;2023-05-07T07:19:11;11.57;;;9.52;;
36391;SDS011;22639;42.690;23.356;2023-05-07T07:21:37;8.63;;;7.68;;
36391;SDS011;22639;42.690;23.356;2023-05-07T07:24:02;8.82;;;7.93;;
36391;SDS011;22639;42.690;23.356;2023-05-07T07:26:27;9.23;;;7.35;;
36391;SDS011;22639;42.690;23.356;2023-05-07T07:28:53;8.77;;;7.90;;
36391;SDS011;22639;42.690;23.356;2023-05-07T07:31:18;8.32;;;7.45;;
36391;SDS011;22639;42.690;23.356;2023-05-07T07:33:43;10.35;;;7.97;;
36391;SDS011;22639;42.690;23.356;2023-05-07T07:36:09;9.13;;;7.53;;
36391;SDS011;22639;42.690;23.356;2023-05-07T07:38:34;7.80;;;7.15;;
36391;SDS011;22639;42.690;23.356;2023-05-07T07:41:00;9.07;;;8.18;;
36391;SDS011;22639;42.690;23.356;2023-05-07T07:43:25;8.95;;;7.95;;
36391;SDS011;22639;42.690;23.356;2023-05-07T07:45:50;8.85;;;8.13;;
36391;SDS011;22639;42.690;23.356;2023-05-07T07:48:16;8.73;;;7.60;;
36391;SDS011;22639;42.690;23.356;2023-05-07T07:50:41;8.77;;;7.97;;
36391;SDS011;22639;42.690;23.356;2023-05-07T07:53:06;8.68;;;7.88;;
36391;SDS011;22639;42.690;23.356;2023-05-07T07:55:31;8.43;;;7.63;;
36391;SDS011;22639;42.690;23.356;2023-05-07T07:57:57;7.65;;;7.00;;
36391;SDS011;22639;42.690;23.356;2023-05-07T08:00:22;8.95;;;8.05;;
36391;SDS011;22639;42.690;23.356;2023-05-07T08:02:48;8.05;;;7.25;;
36391;SDS011;22639;42.690;23.356;2023-05-07T08:05:13;7.55;;;6.90;;
36391;SDS011;22639;42.690;23.356;2023-05-07T08:07:38;8.18;;;7.38;;
36391;SDS011;22639;42.690;23.356;2023-05-07T08:10:04;8.15;;;7.35;;
36391;SDS011;22639;42.690;23.356;2023-05-07T08:12:29;7.68;;;6.95;;
36391;SDS011;22639;42.690;23.356;2023-05-07T08:14:54;9.13;;;7.78;;
36391;SDS011;22639;42.690;23.356;2023-05-07T08:17:19;7.68;;;6.88;;
36391;SDS011;22639;42.690;23.356;2023-05-07T08:19:47;7.65;;;6.35;;
36391;SDS011;22639;42.690;23.356;2023-05-07T08:22:12;8.40;;;7.53;;
36391;SDS011;22639;42.690;23.356;2023-05-07T08:24:37;7.90;;;6.80;;
36391;SDS011;22639;42.690;23.356;2023-05-07T08:27:02;8.25;;;7.55;;
36391;SDS011;22639;42.690;23.356;2023-05-07T08:29:28;8.13;;;6.93;;
36391;SDS011;22639;42.690;23.356;2023-05-07T08:31:53;8.13;;;7.33;;
36391;SDS011;22639;42.690;23.356;2023-05-07T08:34:19;7.97;;;7.18;;
36391;SDS011;22639;42.690;23.356;2023-05-07T08:36:44;8.25;;;7.43;;
36391;SDS011;22639;42.690;23.356;2023-05-07T08:39:13;7.45;;;6.75;;
36391;SDS011;22639;42.690;23.356;2023-05-07T08:41:38;6.63;;;6.03;;
36391;SDS011;22639;42.690;23.356;2023-05-07T08:44:03;9.18;;;7.13;;
36391;SDS011;22639;42.690;23.356;2023-05-07T08:46:32;6.88;;;6.32;;
36391;SDS011;22639;42.690;23.356;2023-05-07T08:48:57;7.43;;;5.78;;
36391;SDS011;22639;42.690;23.356;2023-05-07T08:51:24;5.97;;;5.43;;
36391;SDS011;22639;42.690;23.356;2023-05-07T08:53:49;6.68;;;6.03;;
36391;SDS011;22639;42.690;23.356;2023-05-07T08:56:15;6.82;;;5.55;;
36391;SDS011;22639;42.690;23.356;2023-05-07T08:58:41;6.20;;;5.40;;
36391;SDS011;22639;42.690;23.356;2023-05-07T09:01:07;5.88;;;5.30;;
36391;SDS011;22639;42.690;23.356;2023-05-07T09:03:33;5.85;;;5.35;;
36391;SDS011;22639;42.690;23.356;2023-05-07T09:05:58;5.40;;;4.90;;
36391;SDS011;22639;42.690;23.356;2023-05-07T09:08:24;5.38;;;4.85;;
36391;SDS011;22639;42.690;23.356;2023-05-07T09:10:50;4.38;;;4.07;;
36391;SDS011;22639;42.690;23.356;2023-05-07T09:13:15;4.20;;;3.90;;
36391;SDS011;22639;42.690;23.356;2023-05-07T09:15:40;4.00;;;3.70;;
36391;SDS011;22639;42.690;23.356;2023-05-07T09:18:05;4.80;;;4.40;;
36391;SDS011;22639;42.690;23.356;2023-05-07T09:20:31;5.28;;;4.50;;
36391;SDS011;22639;42.690;23.356;2023-05-07T09:22:56;5.72;;;5.18;;
36391;SDS011;22639;42.690;23.356;2023-05-07T09:25:28;5.10;;;4.60;;
36391;SDS011;22639;42.690;23.356;2023-05-07T09:27:54;5.70;;;4.80;;
36391;SDS011;22639;42.690;23.356;2023-05-07T09:30:19;4.82;;;3.95;;
36391;SDS011;22639;42.690;23.356;2023-05-07T09:32:45;4.97;;;4.47;;
36391;SDS011;22639;42.690;23.356;2023-05-07T09:35:15;5.25;;;4.13;;
36391;SDS011;22639;42.690;23.356;2023-05-07T09:37:47;5.22;;;4.25;;
36391;SDS011;22639;42.690;23.356;2023-05-07T09:40:23;8.38;;;3.85;;
36391;SDS011;22639;42.690;23.356;2023-05-07T09:42:49;4.75;;;3.80;;
36391;SDS011;22639;42.690;23.356;2023-05-07T09:45:15;4.93;;;3.90;;
36391;SDS011;22639;42.690;23.356;2023-05-07T09:47:42;4.05;;;3.75;;
36391;SDS011;22639;42.690;23.356;2023-05-07T09:50:13;4.20;;;3.80;;
36391;SDS011;22639;42.690;23.356;2023-05-07T09:52:40;4.35;;;3.95;;
36391;SDS011;22639;42.690;23.356;2023-05-07T09:55:06;5.80;;;3.95;;
36391;SDS011;22639;42.690;23.356;2023-05-07T09:57:33;4.40;;;4.10;;
36391;SDS011;22639;42.690;23.356;2023-05-07T09:59:59;3.80;;;3.50;;
36391;SDS011;22639;42.690;23.356;2023-05-07T10:02:27;4.93;;;3.95;;
36391;SDS011;22639;42.690;23.356;2023-05-07T10:04:54;3.42;;;3.13;;
36391;SDS011;22639;42.690;23.356;2023-05-07T10:07:20;4.15;;;3.85;;
36391;SDS011;22639;42.690;23.356;2023-05-07T10:09:45;3.92;;;3.63;;
36391;SDS011;22639;42.690;23.356;2023-05-07T10:12:11;3.72;;;3.08;;
36391;SDS011;22639;42.690;23.356;2023-05-07T10:14:37;3.63;;;3.33;;
36391;SDS011;22639;42.690;23.356;2023-05-07T10:17:05;4.45;;;3.55;;
36391;SDS011;22639;42.690;23.356;2023-05-07T10:19:30;4.05;;;3.65;;
36391;SDS011;22639;42.690;23.356;2023-05-07T10:21:59;3.85;;;3.55;;
36391;SDS011;22639;42.690;23.356;2023-05-07T10:24:32;3.17;;;2.92;;
36391;SDS011;22639;42.690;23.356;2023-05-07T10:26:59;3.67;;;3.10;;
36391;SDS011;22639;42.690;23.356;2023-05-07T10:34:23;3.97;;;3.50;;
36391;SDS011;22639;42.690;23.356;2023-05-07T10:36:49;3.08;;;2.78;;
36391;SDS011;22639;42.690;23.356;2023-05-07T10:39:15;3.55;;;3.28;;
36391;SDS011;22639;42.690;23.356;2023-05-07T10:41:40;3.05;;;2.80;;
36391;SDS011;22639;42.690;23.356;2023-05-07T10:44:06;3.90;;;3.28;;
36391;SDS011;22639;42.690;23.356;2023-05-07T10:46:31;3.35;;;3.08;;
36391;SDS011;22639;42.690;23.356;2023-05-07T10:51:25;4.05;;;3.53;;
36391;SDS011;22639;42.690;23.356;2023-05-07T10:56:34;3.65;;;3.35;;
36391;SDS011;22639;42.690;23.356;2023-05-07T11:04:17;3.17;;;2.88;;
36391;SDS011;22639;42.690;23.356;2023-05-07T11:12:17;4.03;;;3.72;;
36391;SDS011;22639;42.690;23.356;2023-05-07T11:14:43;3.40;;;3.15;;
36391;SDS011;22639;42.690;23.356;2023-05-07T11:17:11;3.63;;;3.33;;
36391;SDS011;22639;42.690;23.356;2023-05-07T11:19:50;3.78;;;3.47;;
36391;SDS011;22639;42.690;23.356;2023-05-07T11:25:10;3.17;;;2.97;;
36391;SDS011;22639;42.690;23.356;2023-05-07T11:27:36;3.17;;;2.90;;
36391;SDS011;22639;42.690;23.356;2023-05-07T11:30:01;3.40;;;3.20;;
36391;SDS011;22639;42.690;23.356;2023-05-07T11:32:30;2.78;;;2.53;;
36391;SDS011;22639;42.690;23.356;2023-05-07T11:34:59;3.60;;;3.30;;
36391;SDS011;22639;42.690;23.356;2023-05-07T11:37:25;4.68;;;3.55;;
36391;SDS011;22639;42.690;23.356;2023-05-07T11:39:52;3.70;;;3.22;;
36391;SDS011;22639;42.690;23.356;2023-05-07T11:42:30;3.70;;;3.38;;
36391;SDS011;22639;42.690;23.356;2023-05-07T11:44:56;4.05;;;3.72;;
36391;SDS011;22639;42.690;23.356;2023-05-07T11:47:21;3.38;;;3.17;;
36391;SDS011;22639;42.690;23.356;2023-05-07T11:49:51;3.75;;;3.45;;
36391;SDS011;22639;42.690;23.356;2023-05-07T11:52:16;4.22;;;3.80;;
36391;SDS011;22639;42.690;23.356;2023-05-07T11:54:48;4.15;;;3.75;;
36391;SDS011;22639;42.690;23.356;2023-05-07T11:57:16;4.60;;;4.20;;
36391;SDS011;22639;42.690;23.356;2023-05-07T11:59:42;3.90;;;3.60;;
36391;SDS011;22639;42.690;23.356;2023-05-07T12:02:09;3.80;;;3.50;;
36391;SDS011;22639;42.690;23.356;2023-05-07T12:04:35;4.18;;;3.63;;
36391;SDS011;22639;42.690;23.356;2023-05-07T12:07:01;3.75;;;3.45;;
36391;SDS011;22639;42.690;23.356;2023-05-07T12:09:26;3.70;;;3.40;;
36391;SDS011;22639;42.690;23.356;2023-05-07T12:11:51;4.10;;;3.70;;
36391;SDS011;22639;42.690;23.356;2023-05-07T12:14:16;4.10;;;3.75;;
36391;SDS011;22639;42.690;23.356;2023-05-07T12:16:42;3.85;;;3.17;;
36391;SDS011;22639;42.690;23.356;2023-05-07T12:19:08;3.63;;;3.33;;
36391;SDS011;22639;42.690;23.356;2023-05-07T12:21:37;4.43;;;3.65;;
36391;SDS011;22639;42.690;23.356;2023-05-07T12:24:02;6.15;;;3.80;;
36391;SDS011;22639;42.690;23.356;2023-05-07T12:26:27;4.72;;;3.22;;
36391;SDS011;22639;42.690;23.356;2023-05-07T12:28:53;4.13;;;3.22;;
36391;SDS011;22639;42.690;23.356;2023-05-07T12:31:18;3.63;;;3.33;;
36391;SDS011;22639;42.690;23.356;2023-05-07T12:33:43;3.00;;;2.80;;
36391;SDS011;22639;42.690;23.356;2023-05-07T12:36:11;3.35;;;3.05;;
36391;SDS011;22639;42.690;23.356;2023-05-07T12:38:37;3.50;;;3.20;;
36391;SDS011;22639;42.690;23.356;2023-05-07T12:41:05;3.65;;;3.33;;
36391;SDS011;22639;42.690;23.356;2023-05-07T12:43:30;2.78;;;2.58;;
36391;SDS011;22639;42.690;23.356;2023-05-07T12:45:57;3.65;;;2.25;;
36391;SDS011;22639;42.690;23.356;2023-05-07T12:48:23;2.58;;;2.30;;
36391;SDS011;22639;42.690;23.356;2023-05-07T12:50:49;2.17;;;2.08;;
36391;SDS011;22639;42.690;23.356;2023-05-07T12:53:14;2.63;;;2.42;;
36391;SDS011;22639;42.690;23.356;2023-05-07T12:55:40;2.85;;;2.45;;
36391;SDS011;22639;42.690;23.356;2023-05-07T12:58:06;2.85;;;2.50;;
36391;SDS011;22639;42.690;23.356;2023-05-07T13:00:33;2.50;;;2.30;;
36391;SDS011;22639;42.690;23.356;2023-05-07T13:02:58;3.83;;;2.40;;
36391;SDS011;22639;42.690;23.356;2023-05-07T13:05:23;3.00;;;2.80;;
36391;SDS011;22639;42.690;23.356;2023-05-07T13:07:52;2.38;;;2.17;;
36391;SDS011;22639;42.690;23.356;2023-05-07T13:10:18;4.47;;;2.75;;
36391;SDS011;22639;42.690;23.356;2023-05-07T13:12:43;3.97;;;2.22;;
36391;SDS011;22639;42.690;23.356;2023-05-07T13:15:09;2.35;;;2.15;;
36391;SDS011;22639;42.690;23.356;2023-05-07T13:17:35;2.60;;;2.40;;
36391;SDS011;22639;42.690;23.356;2023-05-07T13:20:00;3.25;;;2.40;;
36391;SDS011;22639;42.690;23.356;2023-05-07T13:22:25;2.67;;;2.47;;
36391;SDS011;22639;42.690;23.356;2023-05-07T13:24:50;4.72;;;2.78;;
36391;SDS011;22639;42.690;23.356;2023-05-07T13:27:16;2.70;;;2.50;;
36391;SDS011;22639;42.690;23.356;2023-05-07T13:29:42;2.50;;;2.30;;
36391;SDS011;22639;42.690;23.356;2023-05-07T13:32:07;3.42;;;3.00;;
36391;SDS011;22639;42.690;23.356;2023-05-07T13:34:33;4.13;;;2.60;;
36391;SDS011;22639;42.690;23.356;2023-05-07T13:36:58;3.47;;;3.15;;
36391;SDS011;22639;42.690;23.356;2023-05-07T13:39:23;3.38;;;2.60;;
36391;SDS011;22639;42.690;23.356;2023-05-07T13:41:49;2.53;;;2.33;;
36391;SDS011;22639;42.690;23.356;2023-05-07T13:44:14;3.22;;;2.92;;
36391;SDS011;22639;42.690;23.356;2023-05-07T13:46:39;3.88;;;2.75;;
36391;SDS011;22639;42.690;23.356;2023-05-07T13:49:04;2.45;;;2.25;;
36391;SDS011;22639;42.690;23.356;2023-05-07T13:51:30;2.83;;;2.58;;
36391;SDS011;22639;42.690;23.356;2023-05-07T13:53:55;3.25;;;2.88;;
36391;SDS011;22639;42.690;23.356;2023-05-07T13:56:20;3.78;;;2.75;;
36391;SDS011;22639;42.690;23.356;2023-05-07T13:58:46;2.85;;;2.65;;
36391;SDS011;22639;42.690;23.356;2023-05-07T14:01:11;3.03;;;2.72;;
36391;SDS011;22639;42.690;23.356;2023-05-07T14:03:36;3.05;;;2.78;;
36391;SDS011;22639;42.690;23.356;2023-05-07T14:06:03;4.60;;;2.88;;
36391;SDS011;22639;42.690;23.356;2023-05-07T14:08:29;3.47;;;3.17;;
36391;SDS011;22639;42.690;23.356;2023-05-07T14:10:54;5.10;;;2.88;;
36391;SDS011;22639;42.690;23.356;2023-05-07T14:13:20;3.08;;;2.85;;
36391;SDS011;22639;42.690;23.356;2023-05-07T14:15:45;4.22;;;3.10;;
36391;SDS011;22639;42.690;23.356;2023-05-07T14:18:15;3.53;;;3.08;;
36391;SDS011;22639;42.690;23.356;2023-05-07T14:20:40;3.13;;;2.83;;
36391;SDS011;22639;42.690;23.356;2023-05-07T14:23:05;3.22;;;2.92;;
36391;SDS011;22639;42.690;23.356;2023-05-07T14:25:31;2.85;;;2.65;;
36391;SDS011;22639;42.690;23.356;2023-05-07T14:27:56;2.58;;;2.38;;
36391;SDS011;22639;42.690;23.356;2023-05-07T14:30:22;3.90;;;2.90;;
36391;SDS011;22639;42.690;23.356;2023-05-07T14:32:49;3.40;;;2.90;;
36391;SDS011;22639;42.690;23.356;2023-05-07T14:35:14;3.90;;;3.00;;
36391;SDS011;22639;42.690;23.356;2023-05-07T14:37:40;3.00;;;2.70;;
36391;SDS011;22639;42.690;23.356;2023-05-07T14:40:05;3.58;;;2.53;;
36391;SDS011;22639;42.690;23.356;2023-05-07T14:42:31;3.20;;;2.90;;
36391;SDS011;22639;42.690;23.356;2023-05-07T14:44:56;3.38;;;2.63;;